Time;durP1;ratioP1;P1;durP2;ratioP2;P2;SDS_P1;SDS_P2;PMS_P1;PMS_P2;Temp;Humidity;BMP_temperature;BMP_pressure;BME280_temperature;BME280_humidity;BME280_pressure;Samples;Min_cycle;Max_cycle;Signal;HPM_P1;HPM_P2
2023/03/12 00:01:28;;;;;;;9.20;6.03;;;5.80;99.90;;;;;;5097007;28;20639;-59
2023/03/12 00:03:54;;;;;;;8.40;5.85;;;5.80;99.90;;;;;;5096788;28;20197;-60
2023/03/12 00:06:20;;;;;;;10.40;6.07;;;5.70;99.90;;;;;;5096796;28;20189;-60
2023/03/12 00:08:47;;;;;;;8.85;5.40;;;5.80;99.90;;;;;;5096813;28;20174;-60
2023/03/12 00:11:16;;;;;;;9.32;5.55;;;5.80;99.90;;;;;;5096927;28;20184;-59
2023/03/12 00:13:45;;;;;;;8.52;6.28;;;5.80;99.90;;;;;;5096871;28;20234;-60
2023/03/12 00:16:14;;;;;;;12.27;6.13;;;5.70;99.90;;;;;;5096650;28;20248;-60
2023/03/12 00:18:41;;;;;;;7.43;6.38;;;5.80;99.90;;;;;;5096715;28;20667;-60
2023/03/12 00:21:08;;;;;;;9.75;6.53;;;5.70;99.90;;;;;;5096456;28;20300;-60
2023/03/12 00:23:34;;;;;;;11.18;5.85;;;5.70;99.90;;;;;;5096556;28;20226;-59
2023/03/12 00:26:02;;;;;;;9.45;5.00;;;5.70;99.90;;;;;;5096638;28;20643;-59
2023/03/12 00:28:29;;;;;;;11.20;6.50;;;5.70;99.90;;;;;;5096566;28;20209;-60
2023/03/12 00:30:55;;;;;;;9.43;5.28;;;5.80;99.90;;;;;;5096384;28;20177;-60
2023/03/12 00:33:20;;;;;;;7.85;5.20;;;5.80;99.90;;;;;;5096282;28;20184;-60
2023/03/12 00:35:46;;;;;;;8.70;5.30;;;5.80;99.90;;;;;;5096531;28;20260;-60
2023/03/12 00:38:11;;;;;;;9.27;4.80;;;5.80;99.90;;;;;;5096737;28;20173;-59
2023/03/12 00:40:38;;;;;;;8.32;5.38;;;5.80;99.90;;;;;;5096160;28;20192;-60
2023/03/12 00:43:04;;;;;;;9.40;5.03;;;5.90;99.90;;;;;;5096154;28;20178;-60
2023/03/12 00:45:29;;;;;;;9.05;4.70;;;5.90;99.90;;;;;;5096131;28;20193;-60
2023/03/12 00:47:55;;;;;;;8.25;4.53;;;5.90;99.90;;;;;;5096054;28;20190;-60
2023/03/12 00:50:21;;;;;;;8.45;4.82;;;5.90;99.90;;;;;;5095989;28;20227;-60
2023/03/12 00:52:47;;;;;;;8.80;5.10;;;5.90;99.90;;;;;;5096188;28;20242;-60
2023/03/12 00:55:12;;;;;;;8.15;5.25;;;6.00;99.90;;;;;;5096061;28;20184;-59
2023/03/12 00:57:38;;;;;;;7.50;4.30;;;6.00;99.90;;;;;;5095237;28;20528;-59
2023/03/12 01:00:09;;;;;;;7.32;4.53;;;6.00;99.90;;;;;;5095434;28;20177;-59
2023/03/12 01:02:36;;;;;;;8.63;4.90;;;6.00;99.90;;;;;;5095787;28;20249;-60
2023/03/12 01:05:02;;;;;;;6.47;4.57;;;6.00;99.90;;;;;;5095916;28;20656;-60
2023/03/12 01:07:28;;;;;;;6.18;4.22;;;6.00;99.90;;;;;;5095710;28;20166;-59
2023/03/12 01:09:53;;;;;;;7.63;4.53;;;6.00;99.90;;;;;;5095758;28;20242;-60
2023/03/12 01:12:19;;;;;;;7.70;4.47;;;6.00;99.90;;;;;;5095682;28;20185;-59
2023/03/12 01:14:45;;;;;;;7.68;4.55;;;6.00;99.90;;;;;;5095490;28;20203;-60
2023/03/12 01:17:10;;;;;;;7.63;4.80;;;6.00;99.90;;;;;;5095466;28;20180;-60
2023/03/12 01:19:36;;;;;;;8.32;4.47;;;6.00;99.90;;;;;;5095665;28;20173;-60
2023/03/12 01:22:02;;;;;;;8.13;4.35;;;6.00;99.90;;;;;;5095362;28;20184;-59
2023/03/12 01:24:28;;;;;;;7.30;3.65;;;6.10;99.90;;;;;;5095302;28;20213;-59
2023/03/12 01:26:53;;;;;;;6.88;4.10;;;6.10;99.90;;;;;;5095411;28;20173;-60
2023/03/12 01:29:19;;;;;;;8.55;3.58;;;6.10;99.90;;;;;;5095290;28;20203;-60
2023/03/12 01:31:45;;;;;;;6.53;4.07;;;6.10;99.90;;;;;;5095454;28;20210;-59
2023/03/12 01:34:11;;;;;;;8.77;4.05;;;6.10;99.90;;;;;;5095444;28;20180;-59
2023/03/12 01:36:37;;;;;;;5.68;3.80;;;6.10;99.90;;;;;;5094969;28;20651;-59
2023/03/12 01:39:03;;;;;;;7.55;3.75;;;6.10;99.90;;;;;;5095231;28;20181;-60
2023/03/12 01:41:31;;;;;;;3.35;3.05;;;6.10;99.90;;;;;;5095028;28;20196;-60
2023/03/12 01:43:58;;;;;;;8.20;4.07;;;6.00;99.90;;;;;;5095070;28;20556;-60
2023/03/12 01:46:30;;;;;;;4.07;3.35;;;6.00;99.90;;;;;;5093567;28;20620;-59
2023/03/12 01:49:16;;;;;;;6.50;3.28;;;6.10;99.90;;;;;;5095104;28;20310;-60
2023/03/12 01:51:56;;;;;;;7.10;3.70;;;6.20;99.90;;;;;;5094816;28;20701;-60
2023/03/12 01:54:34;;;;;;;7.82;3.80;;;6.20;99.90;;;;;;5094909;28;20173;-59
2023/03/12 01:57:03;;;;;;;4.65;3.22;;;6.20;99.90;;;;;;5094758;28;20171;-60
2023/03/12 01:59:39;;;;;;;5.68;3.72;;;6.20;99.90;;;;;;5094918;28;20223;-61
2023/03/12 02:02:06;;;;;;;6.55;3.67;;;6.20;99.90;;;;;;5094671;28;20677;-61
2023/03/12 02:04:33;;;;;;;4.25;2.97;;;6.30;99.90;;;;;;5094680;28;20678;-60
2023/03/12 02:07:04;;;;;;;6.03;3.35;;;6.20;99.90;;;;;;5094571;28;20628;-60
2023/03/12 02:09:32;;;;;;;7.40;3.58;;;6.30;99.90;;;;;;5094100;28;20174;-60
2023/03/12 02:11:59;;;;;;;8.57;3.30;;;6.30;99.90;;;;;;5094607;28;20170;-60
2023/03/12 02:14:24;;;;;;;5.22;3.28;;;6.30;99.90;;;;;;5094376;28;20181;-60
2023/03/12 02:16:52;;;;;;;6.28;3.10;;;6.20;99.90;;;;;;5094519;28;20179;-60
2023/03/12 02:19:27;;;;;;;6.35;3.45;;;6.10;99.90;;;;;;5094390;28;20528;-60
2023/03/12 02:21:52;;;;;;;7.38;3.10;;;6.20;99.90;;;;;;5093984;28;20183;-60
2023/03/12 02:24:31;;;;;;;5.97;3.13;;;6.30;99.90;;;;;;5094407;28;20557;-60
2023/03/12 02:26:58;;;;;;;4.13;3.08;;;6.20;99.90;;;;;;5094325;28;20177;-60
2023/03/12 02:29:26;;;;;;;5.22;3.15;;;6.10;99.90;;;;;;5094295;28;20176;-59
2023/03/12 02:31:55;;;;;;;6.57;3.08;;;6.10;99.90;;;;;;5094155;28;20173;-59
2023/03/12 02:34:21;;;;;;;6.45;3.20;;;6.20;99.90;;;;;;5094037;28;20559;-60
2023/03/12 02:36:48;;;;;;;5.88;3.30;;;6.20;99.90;;;;;;5094020;28;20223;-59
2023/03/12 02:39:14;;;;;;;11.05;3.22;;;6.20;99.90;;;;;;5094127;28;20592;-60
2023/03/12 02:41:44;;;;;;;5.85;3.20;;;6.10;99.90;;;;;;5093876;28;20194;-60
2023/03/12 02:44:26;;;;;;;6.32;2.78;;;6.10;99.90;;;;;;5094000;28;20600;-59
2023/03/12 02:46:55;;;;;;;4.10;2.95;;;6.10;99.90;;;;;;5093891;28;20210;-59
2023/03/12 02:49:23;;;;;;;4.20;3.03;;;6.00;99.90;;;;;;5093877;28;20246;-60
2023/03/12 02:51:49;;;;;;;5.40;3.15;;;6.00;99.90;;;;;;5093887;28;20174;-60
2023/03/12 02:54:16;;;;;;;5.88;2.83;;;6.00;99.90;;;;;;5093658;28;20232;-60
2023/03/12 02:56:42;;;;;;;5.57;3.30;;;6.10;99.90;;;;;;5093579;28;20177;-60
2023/03/12 02:59:09;;;;;;;5.85;3.38;;;6.00;99.90;;;;;;5092401;28;20176;-59
2023/03/12 03:01:35;;;;;;;7.97;3.00;;;6.10;99.90;;;;;;5093521;28;20178;-60
2023/03/12 03:04:03;;;;;;;7.38;3.50;;;6.00;99.90;;;;;;5093673;28;20259;-60
2023/03/12 03:06:30;;;;;;;6.75;3.33;;;6.00;99.90;;;;;;5093648;28;20173;-60
2023/03/12 03:08:56;;;;;;;8.05;3.38;;;6.10;99.90;;;;;;5093588;28;20280;-59
2023/03/12 03:11:25;;;;;;;7.30;3.40;;;6.10;99.90;;;;;;5093498;28;20174;-60
2023/03/12 03:13:52;;;;;;;6.47;3.10;;;6.10;99.90;;;;;;5093482;28;20184;-59
2023/03/12 03:16:17;;;;;;;5.05;2.75;;;6.00;99.90;;;;;;5093274;28;20162;-60
2023/03/12 03:18:43;;;;;;;4.28;2.78;;;6.00;99.90;;;;;;5093477;28;20261;-60
2023/03/12 03:21:15;;;;;;;5.78;3.22;;;6.00;99.90;;;;;;5092654;28;20644;-60
2023/03/12 03:23:41;;;;;;;7.80;3.53;;;6.00;99.90;;;;;;5092629;28;20230;-60
2023/03/12 03:26:07;;;;;;;6.38;2.95;;;6.00;99.90;;;;;;5093299;28;20181;-60
2023/03/12 03:28:33;;;;;;;6.53;3.17;;;6.00;99.90;;;;;;5093223;28;20182;-60
2023/03/12 03:31:00;;;;;;;6.07;3.47;;;6.00;99.90;;;;;;5093144;28;20170;-60
2023/03/12 03:33:27;;;;;;;7.97;3.20;;;6.10;99.90;;;;;;5093312;28;20200;-60
2023/03/12 03:35:54;;;;;;;8.57;3.30;;;6.10;99.90;;;;;;5093143;28;20181;-60
2023/03/12 03:38:21;;;;;;;5.88;3.05;;;6.10;99.90;;;;;;5093168;28;20188;-60
2023/03/12 03:40:47;;;;;;;6.50;2.88;;;6.00;99.90;;;;;;5093147;28;20170;-59
2023/03/12 03:43:12;;;;;;;6.57;3.20;;;6.00;99.90;;;;;;5092889;28;20209;-60
2023/03/12 03:45:38;;;;;;;6.20;2.60;;;6.10;99.90;;;;;;5093244;28;20177;-60
2023/03/12 03:48:04;;;;;;;4.28;2.90;;;6.00;99.90;;;;;;5093129;28;20649;-60
2023/03/12 03:50:30;;;;;;;5.68;3.30;;;6.00;99.90;;;;;;5093104;28;20165;-60
2023/03/12 03:52:56;;;;;;;4.25;2.80;;;6.00;99.90;;;;;;5093039;28;20653;-59
2023/03/12 03:55:21;;;;;;;5.35;3.13;;;6.00;99.90;;;;;;5093321;28;20542;-60
2023/03/12 03:57:47;;;;;;;5.95;3.00;;;6.00;99.90;;;;;;5092849;28;20222;-60
2023/03/12 04:00:16;;;;;;;5.47;3.05;;;6.10;99.90;;;;;;5092881;28;20182;-60
2023/03/12 04:02:43;;;;;;;5.40;3.13;;;6.00;99.90;;;;;;5093069;28;20173;-59
2023/03/12 04:05:09;;;;;;;6.05;3.33;;;6.00;99.90;;;;;;5092905;28;20247;-60
2023/03/12 04:07:38;;;;;;;7.15;3.50;;;6.10;99.90;;;;;;5092890;28;20227;-60
2023/03/12 04:10:05;;;;;;;4.95;2.90;;;6.00;99.90;;;;;;5092837;28;20180;-60
2023/03/12 04:12:30;;;;;;;8.35;3.17;;;6.00;99.90;;;;;;5092673;28;20628;-60
2023/03/12 04:14:56;;;;;;;4.93;2.85;;;6.00;99.90;;;;;;5092932;28;20185;-60
2023/03/12 04:17:22;;;;;;;5.40;2.90;;;6.10;99.90;;;;;;5092939;28;20570;-60
2023/03/12 04:19:47;;;;;;;5.43;3.28;;;6.10;99.90;;;;;;5093124;28;20607;-59
2023/03/12 04:22:13;;;;;;;6.68;3.70;;;6.10;99.90;;;;;;5092612;28;20224;-60
2023/03/12 04:24:39;;;;;;;7.43;3.70;;;6.20;99.90;;;;;;5092759;28;20248;-59
2023/03/12 04:27:05;;;;;;;4.93;3.28;;;6.20;99.90;;;;;;5092558;28;20178;-61
2023/03/12 04:29:30;;;;;;;7.60;3.50;;;6.20;99.90;;;;;;5092814;28;20504;-60
2023/03/12 04:31:56;;;;;;;4.60;3.45;;;6.10;99.90;;;;;;5092804;28;20173;-59
2023/03/12 04:34:22;;;;;;;7.18;3.47;;;6.10;99.90;;;;;;5096475;28;20185;-60
2023/03/12 04:36:47;;;;;;;6.85;3.90;;;6.10;99.90;;;;;;5096356;28;20185;-59
2023/03/12 04:39:17;;;;;;;6.78;3.63;;;6.10;99.90;;;;;;5096333;28;20178;-60
2023/03/12 04:41:43;;;;;;;7.57;4.63;;;6.10;99.90;;;;;;5096173;28;20211;-60
2023/03/12 04:44:08;;;;;;;8.32;4.00;;;6.10;99.90;;;;;;5096341;28;20274;-60
2023/03/12 04:46:34;;;;;;;7.90;4.03;;;6.10;99.90;;;;;;5096344;28;20537;-60
2023/03/12 04:49:01;;;;;;;6.50;3.97;;;6.10;99.90;;;;;;5096183;28;20170;-60
2023/03/12 04:51:28;;;;;;;5.78;3.50;;;6.10;99.90;;;;;;5096022;28;20192;-60
2023/03/12 04:53:54;;;;;;;9.00;4.18;;;6.20;99.90;;;;;;5095937;28;20189;-60
2023/03/12 04:56:20;;;;;;;7.22;4.18;;;6.20;99.90;;;;;;5095915;28;20254;-59
2023/03/12 04:58:46;;;;;;;6.57;4.15;;;6.20;99.90;;;;;;5096101;28;20584;-60
2023/03/12 05:01:28;;;;;;;10.32;4.90;;;6.20;99.90;;;;;;5096038;28;20182;-60
2023/03/12 05:03:54;;;;;;;6.03;4.22;;;6.20;99.90;;;;;;5095863;28;20247;-60
2023/03/12 05:06:20;;;;;;;6.80;4.57;;;6.20;99.90;;;;;;5095766;28;20211;-59
2023/03/12 05:08:47;;;;;;;7.47;4.32;;;6.20;99.90;;;;;;5095634;28;20173;-60
2023/03/12 05:11:13;;;;;;;7.38;4.60;;;6.20;99.90;;;;;;5095817;28;20239;-60
2023/03/12 05:13:39;;;;;;;9.77;5.35;;;6.30;99.90;;;;;;5095789;28;20170;-60
2023/03/12 05:16:05;;;;;;;6.38;4.90;;;6.30;99.90;;;;;;5095744;28;20224;-61
2023/03/12 05:18:31;;;;;;;7.10;5.28;;;6.30;99.90;;;;;;5095742;28;20222;-60
2023/03/12 05:21:08;;;;;;;6.93;5.20;;;6.30;99.90;;;;;;5095437;28;20190;-60
2023/03/12 05:23:34;;;;;;;6.38;5.13;;;6.40;99.90;;;;;;5095164;28;20228;-60
2023/03/12 05:26:00;;;;;;;9.35;6.07;;;6.30;99.90;;;;;;5095581;28;20174;-59
2023/03/12 05:28:27;;;;;;;7.53;5.60;;;6.20;99.90;;;;;;5095473;28;20170;-60
2023/03/12 05:31:09;;;;;;;6.45;5.57;;;6.30;99.90;;;;;;5095292;28;20219;-60
2023/03/12 05:33:35;;;;;;;8.20;6.20;;;6.30;99.90;;;;;;5094157;28;20288;-60
2023/03/12 05:36:01;;;;;;;7.85;5.57;;;6.30;99.90;;;;;;5095132;28;20213;-59
2023/03/12 05:38:26;;;;;;;9.93;6.82;;;6.30;99.90;;;;;;5095651;28;20209;-60
2023/03/12 05:40:54;;;;;;;8.90;6.95;;;6.30;99.90;;;;;;5095188;28;20177;-60
2023/03/12 05:43:20;;;;;;;11.48;7.50;;;6.30;99.90;;;;;;5095014;28;20176;-60
2023/03/12 05:45:46;;;;;;;10.27;7.38;;;6.30;99.90;;;;;;5094531;28;20721;-60
2023/03/12 05:48:12;;;;;;;9.80;7.57;;;6.30;99.90;;;;;;5094916;28;20267;-60
2023/03/12 05:50:38;;;;;;;10.45;7.53;;;6.30;99.90;;;;;;5094751;28;20252;-60
2023/03/12 05:53:03;;;;;;;9.55;8.15;;;6.30;99.90;;;;;;5095058;28;20178;-60
2023/03/12 05:55:29;;;;;;;10.00;8.05;;;6.40;99.90;;;;;;5094950;28;20188;-61
2023/03/12 05:57:55;;;;;;;9.48;7.93;;;6.40;99.90;;;;;;5094887;28;20173;-60
2023/03/12 06:00:21;;;;;;;11.80;8.30;;;6.30;99.90;;;;;;5094796;28;20174;-60
2023/03/12 06:02:47;;;;;;;12.00;8.43;;;6.30;99.90;;;;;;5094629;28;20173;-60
2023/03/12 06:05:12;;;;;;;11.02;9.23;;;6.30;99.90;;;;;;5094417;28;20220;-60
2023/03/12 06:07:38;;;;;;;13.70;9.73;;;6.30;99.90;;;;;;5094803;28;20170;-60
2023/03/12 06:10:04;;;;;;;15.00;9.68;;;6.40;99.90;;;;;;5094729;28;20209;-60
2023/03/12 06:12:30;;;;;;;11.70;9.63;;;6.30;99.90;;;;;;5094469;28;20647;-60
2023/03/12 06:14:57;;;;;;;14.43;10.75;;;6.40;99.90;;;;;;5094540;28;20239;-60
2023/03/12 06:17:22;;;;;;;14.95;10.80;;;6.40;99.90;;;;;;5094728;28;20535;-60
2023/03/12 06:19:54;;;;;;;15.13;11.48;;;6.40;99.90;;;;;;5094265;28;20173;-60
2023/03/12 06:22:20;;;;;;;13.38;11.52;;;6.50;99.90;;;;;;5094396;28;20229;-60
2023/03/12 06:24:46;;;;;;;16.00;11.93;;;6.40;99.90;;;;;;5094304;28;20572;-60
2023/03/12 06:27:13;;;;;;;14.70;12.95;;;6.40;99.90;;;;;;5094296;28;20235;-60
2023/03/12 06:29:39;;;;;;;16.08;12.98;;;6.50;99.90;;;;;;5094296;28;20174;-60
2023/03/12 06:32:05;;;;;;;18.70;13.27;;;6.50;99.90;;;;;;5093996;28;20181;-60
2023/03/12 06:34:31;;;;;;;16.95;13.20;;;6.50;99.90;;;;;;5094255;28;20323;-60
2023/03/12 06:36:57;;;;;;;21.27;14.50;;;6.50;99.90;;;;;;5094161;28;20167;-60
2023/03/12 06:39:23;;;;;;;18.27;12.52;;;6.50;99.90;;;;;;5093999;28;20174;-61
2023/03/12 06:41:49;;;;;;;18.65;13.02;;;6.50;99.90;;;;;;5093746;28;20666;-60
2023/03/12 06:44:15;;;;;;;16.08;13.07;;;6.60;99.90;;;;;;5094093;28;20232;-61
2023/03/12 06:46:42;;;;;;;18.90;13.07;;;6.60;99.90;;;;;;5093003;28;20227;-61
2023/03/12 06:49:08;;;;;;;20.05;12.57;;;6.60;99.90;;;;;;5093935;28;20212;-61
2023/03/12 06:51:34;;;;;;;18.75;14.02;;;6.80;99.90;;;;;;5093875;28;20277;-61
2023/03/12 06:54:01;;;;;;;18.67;14.45;;;6.80;99.90;;;;;;5092497;28;20174;-61
2023/03/12 06:56:27;;;;;;;18.42;13.38;;;6.80;99.90;;;;;;5092686;28;20177;-61
2023/03/12 06:58:53;;;;;;;20.33;15.57;;;6.80;99.90;;;;;;5092012;28;20181;-61
2023/03/12 07:01:19;;;;;;;27.35;16.27;;;6.80;99.90;;;;;;5092043;28;20513;-61
2023/03/12 07:03:44;;;;;;;21.10;16.15;;;6.80;99.90;;;;;;5092580;28;20663;-61
2023/03/12 07:06:19;;;;;;;22.73;16.60;;;6.90;99.90;;;;;;5092926;28;20184;-61
2023/03/12 07:08:45;;;;;;;25.02;17.30;;;6.90;99.90;;;;;;5091199;28;20257;-61
2023/03/12 07:11:12;;;;;;;23.63;16.48;;;7.00;99.90;;;;;;5090234;28;20245;-61
2023/03/12 07:13:38;;;;;;;22.60;17.13;;;7.10;99.90;;;;;;5092035;28;20193;-61
2023/03/12 07:16:05;;;;;;;29.08;18.42;;;7.10;99.90;;;;;;5093148;28;20173;-61
2023/03/12 07:18:30;;;;;;;29.70;18.95;;;7.10;99.90;;;;;;5093078;28;20565;-61
2023/03/12 07:20:56;;;;;;;23.98;17.40;;;7.20;99.90;;;;;;5093322;28;20320;-61
2023/03/12 07:23:22;;;;;;;25.65;19.02;;;7.30;99.90;;;;;;5092813;28;20230;-61
2023/03/12 07:25:48;;;;;;;32.22;19.83;;;7.40;99.90;;;;;;5093111;28;20230;-61
2023/03/12 07:28:14;;;;;;;31.38;19.90;;;7.50;99.90;;;;;;5092972;28;20166;-61
2023/03/12 07:30:40;;;;;;;34.55;18.95;;;7.50;99.90;;;;;;5092945;28;20182;-61
2023/03/12 07:33:09;;;;;;;29.80;19.67;;;7.60;99.90;;;;;;5093066;28;20201;-61
2023/03/12 07:35:37;;;;;;;31.83;19.17;;;7.60;99.90;;;;;;5092882;28;20170;-61
2023/03/12 07:38:04;;;;;;;36.80;18.77;;;7.70;99.90;;;;;;5092903;28;20217;-61
2023/03/12 07:40:29;;;;;;;38.25;20.55;;;7.80;99.90;;;;;;5091591;28;20253;-61
2023/03/12 07:42:55;;;;;;;40.90;22.67;;;7.90;99.90;;;;;;5091820;28;20721;-61
2023/03/12 07:45:21;;;;;;;37.05;21.10;;;8.00;99.90;;;;;;5092688;28;20193;-61
2023/03/12 07:47:47;;;;;;;41.85;22.70;;;8.10;99.90;;;;;;5092994;28;20169;-61
2023/03/12 07:50:13;;;;;;;48.30;22.80;;;8.20;99.90;;;;;;5093128;28;20173;-59
2023/03/12 07:52:39;;;;;;;48.40;24.95;;;8.20;99.90;;;;;;5093095;28;20223;-59
2023/03/12 07:55:05;;;;;;;47.70;23.90;;;8.30;99.90;;;;;;5093040;28;20177;-60
2023/03/12 07:57:31;;;;;;;46.60;20.77;;;8.40;99.90;;;;;;5092986;28;20185;-59
2023/03/12 07:59:57;;;;;;;48.22;23.58;;;8.40;99.90;;;;;;5092879;28;20178;-60
2023/03/12 08:02:22;;;;;;;47.70;22.83;;;8.50;99.90;;;;;;5093136;28;20240;-59
2023/03/12 08:04:48;;;;;;;47.75;22.25;;;8.50;99.90;;;;;;5098730;28;20590;-59
2023/03/12 08:07:14;;;;;;;46.10;21.90;;;8.60;99.90;;;;;;5113479;28;20177;-60
2023/03/12 08:09:40;;;;;;;50.83;22.05;;;8.70;99.90;;;;;;5116036;28;20188;-59
2023/03/12 08:12:07;;;;;;;53.53;22.17;;;8.70;99.90;;;;;;5117106;28;20191;-60
2023/03/12 08:14:33;;;;;;;54.25;22.33;;;8.90;99.90;;;;;;5116858;28;20542;-60
2023/03/12 08:16:59;;;;;;;45.40;21.27;;;8.90;99.90;;;;;;5117311;27;20222;-60
2023/03/12 08:19:26;;;;;;;51.88;21.80;;;8.90;99.90;;;;;;5117037;28;20177;-60
2023/03/12 08:21:52;;;;;;;57.58;22.40;;;9.00;99.90;;;;;;5116664;28;20180;-59
2023/03/12 08:24:19;;;;;;;50.63;20.95;;;9.10;99.90;;;;;;5116804;28;20246;-59
2023/03/12 08:26:44;;;;;;;49.78;20.90;;;9.20;99.90;;;;;;5116637;28;20201;-60
2023/03/12 08:29:11;;;;;;;53.55;20.63;;;9.20;99.90;;;;;;5116571;28;20231;-59
2023/03/12 08:31:36;;;;;;;43.63;19.63;;;9.30;99.90;;;;;;5116840;28;20169;-60
2023/03/12 08:34:02;;;;;;;43.53;19.10;;;9.40;99.90;;;;;;5116731;28;20655;-59
2023/03/12 08:36:28;;;;;;;42.90;18.52;;;9.50;99.90;;;;;;5116549;28;20170;-59
2023/03/12 08:38:54;;;;;;;42.05;17.25;;;9.70;99.90;;;;;;5116849;28;20244;-59
2023/03/12 08:41:19;;;;;;;44.13;16.63;;;9.80;99.90;;;;;;5116724;28;20181;-59
2023/03/12 08:43:45;;;;;;;40.75;16.02;;;9.90;99.90;;;;;;5116478;28;20203;-60
2023/03/12 08:46:11;;;;;;;49.15;16.75;;;10.00;99.90;;;;;;5116807;28;20169;-59
2023/03/12 08:48:37;;;;;;;37.72;14.90;;;10.00;99.90;;;;;;5116692;28;20165;-59
2023/03/12 08:51:04;;;;;;;35.83;13.20;;;10.10;99.90;;;;;;5115361;28;20180;-59
2023/03/12 08:53:31;;;;;;;37.22;14.07;;;10.10;99.90;;;;;;5116558;28;20165;-59
2023/03/12 08:55:57;;;;;;;38.08;13.77;;;10.20;99.90;;;;;;5116362;28;20173;-59
2023/03/12 08:58:24;;;;;;;39.25;13.43;;;10.30;99.90;;;;;;5116503;28;20187;-59
2023/03/12 09:00:51;;;;;;;35.38;12.30;;;10.40;99.90;;;;;;5116405;27;20185;-60
2023/03/12 09:03:17;;;;;;;36.03;12.73;;;10.60;99.90;;;;;;5116647;28;20181;-58
2023/03/12 09:05:44;;;;;;;33.65;11.85;;;10.70;99.90;;;;;;5116219;28;20228;-59
2023/03/12 09:08:10;;;;;;;29.63;11.13;;;10.80;99.90;;;;;;5116136;28;20257;-59
2023/03/12 09:10:39;;;;;;;42.58;11.38;;;10.90;99.90;;;;;;5116034;28;20177;-59
2023/03/12 09:13:06;;;;;;;31.95;10.45;;;11.00;99.90;;;;;;5116289;28;20173;-59
2023/03/12 09:15:32;;;;;;;33.50;10.68;;;11.00;99.90;;;;;;5116199;28;20183;-59
2023/03/12 09:17:58;;;;;;;35.28;11.10;;;11.00;99.90;;;;;;5116118;28;20250;-59
2023/03/12 09:20:24;;;;;;;40.13;12.70;;;11.10;99.90;;;;;;5114926;28;20215;-59
2023/03/12 09:22:50;;;;;;;30.00;9.55;;;11.20;99.90;;;;;;5115896;28;20232;-60
2023/03/12 09:25:17;;;;;;;33.95;10.13;;;11.30;99.90;;;;;;5115653;28;20540;-59
2023/03/12 09:27:45;;;;;;;34.70;10.90;;;11.10;99.90;;;;;;5116017;28;20520;-59
2023/03/12 09:30:18;;;;;;;29.60;9.25;;;11.20;99.90;;;;;;5115899;28;20173;-59
2023/03/12 09:32:44;;;;;;;28.60;9.52;;;11.30;99.90;;;;;;5115835;28;20255;-59
2023/03/12 09:35:11;;;;;;;32.55;9.75;;;11.30;99.90;;;;;;5115647;28;20178;-59
2023/03/12 09:37:37;;;;;;;30.67;9.68;;;11.30;99.90;;;;;;5115680;28;20175;-59
2023/03/12 09:40:06;;;;;;;33.25;9.35;;;11.50;99.90;;;;;;5110480;28;20264;-59
2023/03/12 09:42:43;;;;;;;30.33;9.20;;;11.60;99.90;;;;;;5114478;28;20272;-59
2023/03/12 09:45:17;;;;;;;31.45;9.13;;;11.50;99.90;;;;;;5115193;27;20207;-59
2023/03/12 09:47:48;;;;;;;29.60;9.02;;;11.70;99.90;;;;;;5115395;28;20256;-59
2023/03/12 09:50:23;;;;;;;31.10;9.73;;;11.90;99.90;;;;;;5115524;27;20531;-59
2023/03/12 09:53:10;;;;;;;28.92;9.18;;;12.20;99.90;;;;;;5115447;28;20169;-59
2023/03/12 09:55:42;;;;;;;32.28;9.43;;;12.40;99.90;;;;;;5115259;28;20700;-59
2023/03/12 09:58:35;;;;;;;35.35;9.60;;;12.50;99.90;;;;;;5115210;28;20174;-59
2023/03/12 10:01:39;;;;;;;34.10;9.05;;;12.70;99.90;;;;;;5070771;28;20549;-59
2023/03/12 10:04:19;;;;;;;32.47;9.38;;;12.80;99.90;;;;;;5074413;28;20281;-60
2023/03/12 10:06:48;;;;;;;27.05;8.85;;;12.80;99.90;;;;;;5074422;28;20567;-59
2023/03/12 10:09:32;;;;;;;35.05;9.73;;;12.90;99.90;;;;;;5074335;28;20174;-59
2023/03/12 10:12:21;;;;;;;33.50;9.43;;;12.90;99.90;;;;;;5074443;28;20174;-59
2023/03/12 10:15:03;;;;;;;30.73;9.27;;;12.90;99.90;;;;;;5073415;28;20324;-59
2023/03/12 10:17:53;;;;;;;36.55;9.30;;;12.80;99.90;;;;;;5074022;28;20335;-60
2023/03/12 10:20:30;;;;;;;31.38;9.45;;;12.60;99.90;;;;;;5074066;28;20660;-59
2023/03/12 10:23:12;;;;;;;30.55;9.40;;;12.60;99.90;;;;;;5074051;28;20222;-59
2023/03/12 10:25:54;;;;;;;37.25;10.10;;;12.60;99.90;;;;;;5073956;28;20202;-59
2023/03/12 10:28:33;;;;;;;30.75;9.65;;;12.60;99.90;;;;;;5074137;28;20521;-59
2023/03/12 10:31:19;;;;;;;36.25;9.40;;;12.80;99.90;;;;;;5073767;28;20171;-59
2023/03/12 10:33:54;;;;;;;33.42;8.90;;;13.00;99.90;;;;;;5073717;28;20177;-59
2023/03/12 10:36:28;;;;;;;34.85;8.98;;;13.10;99.90;;;;;;5078555;28;20169;-59
2023/03/12 10:38:54;;;;;;;38.08;9.68;;;13.10;99.90;;;;;;5093934;28;20205;-59
2023/03/12 10:41:27;;;;;;;28.75;9.02;;;13.20;99.90;;;;;;5093486;28;20202;-59
2023/03/12 10:43:55;;;;;;;29.63;8.88;;;13.20;99.90;;;;;;5093224;28;20292;-59
2023/03/12 10:47:08;;;;;;;28.55;8.52;;;13.10;99.90;;;;;;5093606;28;20178;-59
2023/03/12 10:49:36;;;;;;;28.30;8.75;;;13.20;99.90;;;;;;5082140;28;20181;-59
2023/03/12 10:52:04;;;;;;;29.55;8.13;;;13.40;99.90;;;;;;5093701;28;20260;-59
2023/03/12 10:54:39;;;;;;;28.80;8.50;;;13.50;99.90;;;;;;5093085;28;20177;-57
2023/03/12 10:57:06;;;;;;;30.95;9.65;;;13.70;99.90;;;;;;5092979;28;20177;-58
2023/03/12 10:59:35;;;;;;;30.88;8.85;;;13.80;99.90;;;;;;5093405;28;20182;-59
2023/03/12 11:02:02;;;;;;;31.55;9.15;;;13.90;99.90;;;;;;5093326;28;20173;-59
2023/03/12 11:04:30;;;;;;;32.13;7.88;;;13.80;99.90;;;;;;5093499;28;20197;-59
2023/03/12 11:07:05;;;;;;;27.38;8.15;;;13.80;99.90;;;;;;5093412;28;20253;-59
2023/03/12 11:09:31;;;;;;;29.13;8.15;;;13.90;99.90;;;;;;5093178;28;20577;-59
2023/03/12 11:11:57;;;;;;;24.73;8.77;;;14.00;99.90;;;;;;5093383;28;20224;-59
2023/03/12 11:14:28;;;;;;;24.75;8.48;;;13.80;99.90;;;;;;5093626;28;20173;-59
2023/03/12 11:16:55;;;;;;;28.08;7.95;;;13.80;99.90;;;;;;5093461;28;20174;-60
2023/03/12 11:19:33;;;;;;;25.25;8.18;;;13.90;99.90;;;;;;5093393;28;20297;-59
2023/03/12 11:22:06;;;;;;;22.55;7.15;;;14.00;99.90;;;;;;5093232;28;20659;-59
2023/03/12 11:24:31;;;;;;;21.52;6.68;;;13.80;99.90;;;;;;5093548;28;20194;-59
2023/03/12 11:27:05;;;;;;;24.88;7.50;;;13.70;99.90;;;;;;5093435;28;20536;-58
2023/03/12 11:29:38;;;;;;;25.40;7.47;;;13.70;99.90;;;;;;5093409;28;20173;-59
2023/03/12 11:32:18;;;;;;;29.63;7.38;;;13.80;99.90;;;;;;5093239;28;20178;-58
2023/03/12 11:34:48;;;;;;;28.48;8.13;;;14.00;99.90;;;;;;5093160;28;20174;-57
2023/03/12 11:37:41;;;;;;;21.33;7.55;;;13.90;99.90;;;;;;5093375;28;20182;-57
2023/03/12 11:40:51;;;;;;;26.50;7.63;;;13.80;99.90;;;;;;5093374;28;20253;-57
2023/03/12 11:43:33;;;;;;;31.35;8.10;;;13.80;99.90;;;;;;5064650;28;20238;-56
2023/03/12 11:46:20;;;;;;;25.25;8.43;;;13.90;99.90;;;;;;5099998;28;20193;-56
2023/03/12 11:49:13;;;;;;;27.90;7.70;;;14.10;99.90;;;;;;5099800;28;20169;-56
2023/03/12 11:51:54;;;;;;;23.02;7.97;;;14.30;99.90;;;;;;5100034;28;20529;-58
2023/03/12 11:54:51;;;;;;;30.05;8.30;;;14.40;99.90;;;;;;5099808;28;20216;-56
2023/03/12 11:57:23;;;;;;;25.05;7.13;;;14.60;99.90;;;;;;5100053;28;20523;-57
2023/03/12 12:00:01;;;;;;;23.52;7.45;;;14.50;99.90;;;;;;5099667;28;20178;-56
2023/03/12 12:02:35;;;;;;;27.60;7.47;;;14.70;99.90;;;;;;5099810;28;20176;-56
2023/03/12 12:05:19;;;;;;;25.80;7.15;;;14.40;99.90;;;;;;5099816;28;20197;-58
2023/03/12 12:08:23;;;;;;;20.73;6.70;;;14.40;99.90;;;;;;5099636;28;20169;-58
2023/03/12 12:11:07;;;;;;;30.00;8.00;;;14.20;99.90;;;;;;5083225;28;20259;-58
2023/03/12 12:14:10;;;;;;;25.95;7.40;;;14.40;99.90;;;;;;5099770;28;20169;-59
2023/03/12 12:16:59;;;;;;;28.40;7.95;;;14.20;99.90;;;;;;5099592;28;20173;-59
2023/03/12 12:19:39;;;;;;;28.15;7.30;;;14.00;99.90;;;;;;5100004;28;20684;-58
2023/03/12 12:22:29;;;;;;;26.75;7.90;;;13.80;99.90;;;;;;5099482;28;20173;-59
2023/03/12 12:24:57;;;;;;;26.45;7.90;;;13.90;99.90;;;;;;5099460;28;20198;-58
2023/03/12 12:27:31;;;;;;;26.98;8.15;;;13.90;99.90;;;;;;5099644;28;20269;-58
2023/03/12 12:30:16;;;;;;;25.83;7.35;;;14.00;99.90;;;;;;5099588;28;20170;-58
2023/03/12 12:33:35;;;;;;;29.77;8.55;;;14.00;99.90;;;;;;5099477;28;20174;-58
2023/03/12 12:36:01;;;;;;;30.33;8.15;;;14.00;99.90;;;;;;5096405;28;20272;-58
2023/03/12 12:38:45;;;;;;;25.55;8.13;;;13.80;99.90;;;;;;5099488;28;20253;-58
2023/03/12 12:41:19;;;;;;;29.05;7.95;;;13.90;99.90;;;;;;5099425;28;20177;-58
2023/03/12 12:44:13;;;;;;;31.27;7.72;;;13.80;99.90;;;;;;5099266;28;20165;-58
2023/03/12 12:46:45;;;;;;;22.55;6.78;;;13.90;99.90;;;;;;5095093;28;20526;-58
2023/03/12 12:49:20;;;;;;;30.10;7.22;;;13.80;99.90;;;;;;5099248;28;20166;-58
2023/03/12 12:51:57;;;;;;;23.67;7.40;;;13.60;99.90;;;;;;5099302;28;20256;-58
2023/03/12 12:54:49;;;;;;;24.25;6.38;;;13.40;99.90;;;;;;5097537;28;20257;-58
2023/03/12 12:57:40;;;;;;;19.20;5.88;;;13.50;99.90;;;;;;5096130;28;20526;-58
2023/03/12 13:00:30;;;;;;;26.30;6.82;;;13.50;99.90;;;;;;5095946;28;20170;-58